Terminal Aerodrome Forecast
Issued by NWS Chicago, IL

Home | Current Version | Previous Version | Text Only | Print | Product List | Glossary On
Versions: 1 2 3 4 5 6 7 8 9 10 11 12 13 14 15 16 17 18 19 20 21 22 23 24 25 26 27 28 29 30 31 32 33 34 35 36 37
000
FTUS43 KLOT 130900 AAB
TAFRFD
TAF AMD
KRFD 130920Z 1309/1406 31006KT P6SM SCT007 OVC020
      TEMPO 1310/1312 OVC013
     FM131500 29009KT P6SM SCT020 BKN250
     FM131900 29010G17KT P6SM SCT045 SCT250
     FM140200 34005KT P6SM SCT050=

USA.gov is the U.S. government's official web portal to all federal, state and local government web resources and services.